createdAt,value
2019-05-01T00:00:20.818Z,7.90
2019-05-01T00:02:51.251Z,7.80
2019-05-01T00:05:21.643Z,7.70
2019-05-01T00:07:50.433Z,7.70
2019-05-01T00:10:21.551Z,7.70
2019-05-01T00:12:50.566Z,7.70
2019-05-01T00:15:22.449Z,7.80
2019-05-01T00:17:51.258Z,7.80
2019-05-01T00:20:20.201Z,7.80
2019-05-01T00:22:49.050Z,7.80
2019-05-01T00:25:17.971Z,7.90
2019-05-01T00:27:46.965Z,7.90
2019-05-01T00:30:29.340Z,8.10
2019-05-01T00:32:48.530Z,8.10
2019-05-01T00:35:17.489Z,8.10
2019-05-01T00:37:46.445Z,8.10
2019-05-01T00:40:16.617Z,8.00
2019-05-01T00:42:45.768Z,7.90
2019-05-01T00:45:15.549Z,7.70
2019-05-01T00:47:44.415Z,7.70
2019-05-01T00:50:15.910Z,7.50
2019-05-01T00:52:44.885Z,7.50
2019-05-01T00:55:15.891Z,7.50
2019-05-01T00:57:46.395Z,7.40
2019-05-01T01:00:16.968Z,7.40
2019-05-01T01:02:47.418Z,7.40
2019-05-01T01:05:17.141Z,7.40
2019-05-01T01:07:45.947Z,7.30
2019-05-01T01:10:15.624Z,7.30
2019-05-01T01:12:44.727Z,7.30
2019-05-01T01:15:14.328Z,7.30
2019-05-01T01:17:43.181Z,7.20
2019-05-01T01:20:12.344Z,7.00
2019-05-01T01:22:41.310Z,7.00
2019-05-01T01:25:10.538Z,6.80
2019-05-01T01:27:39.428Z,6.70
2019-05-01T01:30:09.416Z,6.60
2019-05-01T01:32:39.836Z,6.50
2019-05-01T01:35:09.104Z,6.40
2019-05-01T01:37:38.080Z,6.30
2019-05-01T01:40:08.790Z,6.40
2019-05-01T01:42:38.715Z,6.50
2019-05-01T01:45:08.034Z,6.60
2019-05-01T01:47:38.547Z,6.60
2019-05-01T01:50:08.202Z,6.60
2019-05-01T01:52:37.128Z,6.60
2019-05-01T01:55:06.519Z,6.70
2019-05-01T01:57:37.907Z,6.60
2019-05-01T02:00:09.297Z,6.70
2019-05-01T02:02:39.722Z,6.90
2019-05-01T02:05:10.085Z,7.00
2019-05-01T02:07:39.193Z,7.20
2019-05-01T02:10:09.537Z,7.20
2019-05-01T02:12:39.440Z,7.30
2019-05-01T02:15:08.671Z,7.30
2019-05-01T02:17:39.188Z,7.40
2019-05-01T02:20:08.789Z,7.40
2019-05-01T02:22:37.785Z,7.40
2019-05-01T02:25:08.687Z,7.40
2019-05-01T02:27:40.548Z,7.40
2019-05-01T02:30:11.057Z,7.50
2019-05-01T02:32:42.102Z,7.50
2019-05-01T02:35:11.509Z,7.50
2019-05-01T02:37:40.807Z,7.50
2019-05-01T02:40:12.489Z,7.50
2019-05-01T02:42:42.511Z,7.60
2019-05-01T02:45:11.525Z,7.50
2019-05-01T02:47:43.675Z,7.50
2019-05-01T02:50:14.645Z,7.50
2019-05-01T02:52:44.580Z,7.40
2019-05-01T02:55:15.578Z,7.40
2019-05-01T02:57:45.440Z,7.30
2019-05-01T03:00:15.590Z,7.30
2019-05-01T03:02:44.601Z,7.30
2019-05-01T03:05:13.407Z,7.30
2019-05-01T03:07:43.030Z,7.30
2019-05-01T03:10:12.185Z,7.30
2019-05-01T03:12:43.788Z,7.30
2019-05-01T03:15:13.349Z,7.30
2019-05-01T03:17:46.465Z,7.30
2019-05-01T03:20:16.965Z,7.30
2019-05-01T03:22:47.689Z,7.30
2019-05-01T03:25:16.888Z,7.30
2019-05-01T03:27:45.816Z,7.30
2019-05-01T03:30:15.805Z,7.30
2019-05-01T03:32:44.685Z,7.40
2019-05-01T03:35:13.775Z,7.30
2019-05-01T03:37:42.753Z,7.30
2019-05-01T03:40:12.410Z,7.20
2019-05-01T03:48:28.643Z,7.20
2019-05-01T03:50:59.999Z,7.10
2019-05-01T03:53:29.335Z,7.10
2019-05-01T03:55:58.252Z,7.10
2019-05-01T03:58:27.394Z,7.10
2019-05-01T04:00:57.952Z,7.10
2019-05-01T04:03:28.304Z,7.10
2019-05-01T04:05:57.088Z,7.10
2019-05-01T04:08:25.953Z,7.10
2019-05-01T04:10:55.903Z,7.00
2019-05-01T04:13:25.214Z,7.00
2019-05-01T04:15:54.863Z,7.00
2019-05-01T04:18:24.302Z,7.00
2019-05-01T04:20:53.351Z,7.00
2019-05-01T04:23:22.191Z,7.10
2019-05-01T04:25:50.961Z,7.10
2019-05-01T04:28:21.355Z,7.10
2019-05-01T04:30:52.375Z,7.10
2019-05-01T04:33:21.538Z,7.00
2019-05-01T04:35:52.025Z,6.90
2019-05-01T04:38:20.803Z,6.80
2019-05-01T04:40:49.780Z,6.80
2019-05-01T04:43:18.722Z,6.70
2019-05-01T04:45:48.274Z,6.70
2019-05-01T04:48:18.837Z,6.80
2019-05-01T04:50:48.302Z,6.80
2019-05-01T04:53:18.017Z,6.70
2019-05-01T04:55:47.209Z,6.70
2019-05-01T04:58:16.126Z,6.70
2019-05-01T05:00:44.915Z,6.80
2019-05-01T05:03:15.220Z,6.70
2019-05-01T05:05:44.284Z,6.70
2019-05-01T05:08:13.361Z,6.80
2019-05-01T05:10:42.237Z,6.80
2019-05-01T05:13:11.023Z,6.80
2019-05-01T05:15:42.163Z,6.80
2019-05-01T05:18:10.917Z,6.80
2019-05-01T05:20:40.033Z,6.80
2019-05-01T05:23:08.841Z,6.90
2019-05-01T05:25:38.104Z,6.90
2019-05-01T05:28:11.235Z,7.00
2019-05-01T05:30:42.011Z,7.00
2019-05-01T05:33:18.145Z,7.00
2019-05-01T05:35:43.763Z,7.00
2019-05-01T05:38:15.865Z,7.00
2019-05-01T05:40:45.564Z,7.00
2019-05-01T05:43:14.510Z,7.00
2019-05-01T05:45:43.395Z,7.10
2019-05-01T05:48:12.660Z,7.20
2019-05-01T05:50:46.237Z,7.20
2019-05-01T05:53:19.380Z,7.20
2019-05-01T05:55:52.789Z,7.30
2019-05-01T05:58:25.882Z,7.30
2019-05-01T06:00:58.819Z,7.40
2019-05-01T06:03:34.914Z,7.30
2019-05-01T06:06:05.800Z,7.20
2019-05-01T06:08:37.371Z,7.20
2019-05-01T06:11:07.390Z,7.30
2019-05-01T06:13:38.438Z,7.40
2019-05-01T06:16:12.373Z,7.40
2019-05-01T06:18:40.965Z,7.40
2019-05-01T06:21:13.025Z,7.50
2019-05-01T06:23:44.584Z,7.60
2019-05-01T06:26:14.908Z,7.70
2019-05-01T06:28:43.852Z,7.80
2019-05-01T06:31:17.779Z,7.90
2019-05-01T06:33:48.581Z,8.00
2019-05-01T06:36:15.368Z,8.10
2019-05-01T06:38:44.712Z,8.10
2019-05-01T06:41:14.432Z,8.20
2019-05-01T06:43:43.754Z,8.20
2019-05-01T06:46:13.332Z,8.30
2019-05-01T06:48:48.829Z,8.30
2019-05-01T06:51:18.945Z,8.30
2019-05-01T06:53:48.700Z,8.40
2019-05-01T06:56:17.852Z,8.40
2019-05-01T06:58:51.064Z,8.40
2019-05-01T07:01:18.820Z,8.40
2019-05-01T07:04:02.836Z,8.40
2019-05-01T07:06:18.853Z,8.40
2019-05-01T07:08:47.742Z,8.50
2019-05-01T07:11:16.724Z,8.50
2019-05-01T07:13:47.160Z,8.50
2019-05-01T07:16:15.987Z,8.60
2019-05-01T07:18:44.774Z,8.60
2019-05-01T07:21:13.531Z,8.60
2019-05-01T07:23:42.349Z,8.70
2019-05-01T07:26:13.643Z,8.80
2019-05-01T07:28:43.456Z,8.90
2019-05-01T07:31:13.786Z,8.90
2019-05-01T07:33:47.048Z,8.90
2019-05-01T07:36:16.441Z,8.80
2019-05-01T07:38:45.900Z,8.80
2019-05-01T07:41:14.693Z,8.80
2019-05-01T07:43:45.439Z,8.80
2019-05-01T07:46:18.373Z,8.90
2019-05-01T07:48:46.987Z,8.70
2019-05-01T07:51:16.324Z,8.80
2019-05-01T07:53:45.570Z,8.80
2019-05-01T07:56:17.077Z,8.90
2019-05-01T07:58:47.452Z,8.90
2019-05-01T08:01:18.352Z,9.00
2019-05-01T08:03:47.908Z,9.00
2019-05-01T08:06:21.864Z,9.10
2019-05-01T08:08:47.217Z,9.10
2019-05-01T08:11:16.008Z,9.30
2019-05-01T08:13:44.793Z,9.40
2019-05-01T08:16:13.743Z,9.40
2019-05-01T08:18:44.109Z,9.40
2019-05-01T08:21:14.582Z,9.50
2019-05-01T08:23:47.243Z,9.60
2019-05-01T08:26:13.844Z,9.70
2019-05-01T08:28:44.256Z,9.70
2019-05-01T08:31:14.529Z,9.50
2019-05-01T08:33:49.713Z,9.40
2019-05-01T08:36:15.539Z,9.50
2019-05-01T08:38:44.397Z,9.70
2019-05-01T08:41:13.239Z,9.70
2019-05-01T08:43:42.064Z,9.80
2019-05-01T08:46:16.447Z,9.80
2019-05-01T08:48:44.423Z,10.00
2019-05-01T08:51:13.280Z,10.10
2019-05-01T08:53:42.108Z,10.20
2019-05-01T08:56:10.922Z,10.30
2019-05-01T08:58:39.774Z,10.30
2019-05-01T09:01:10.800Z,10.20
2019-05-01T09:03:39.227Z,10.30
2019-05-01T09:06:08.099Z,10.40
2019-05-01T09:08:36.875Z,10.40
2019-05-01T09:11:05.693Z,10.50
2019-05-01T09:13:34.621Z,10.50
2019-05-01T09:16:03.483Z,10.70
2019-05-01T09:18:32.282Z,10.80
2019-05-01T09:21:01.117Z,10.80
2019-05-01T09:23:29.897Z,10.80
2019-05-01T09:25:59.687Z,10.90
2019-05-01T09:28:30.061Z,11.10
2019-05-01T09:31:02.230Z,11.30
2019-05-01T09:33:32.050Z,11.30
2019-05-01T09:36:00.997Z,11.10
2019-05-01T09:38:29.840Z,11.10
2019-05-01T09:40:58.833Z,11.20
2019-05-01T09:43:30.934Z,11.20
2019-05-01T09:45:58.105Z,11.20
2019-05-01T09:48:26.962Z,11.20
2019-05-01T09:51:00.892Z,11.30
2019-05-01T09:53:29.733Z,11.30
2019-05-01T09:56:03.298Z,11.40
2019-05-01T09:58:31.909Z,11.50
2019-05-01T10:01:00.918Z,11.80
2019-05-01T10:03:29.778Z,11.90
2019-05-01T10:05:58.600Z,12.00
2019-05-01T10:08:27.361Z,11.90
2019-05-01T10:10:59.955Z,11.80
2019-05-01T10:13:26.657Z,11.80
2019-05-01T10:15:55.431Z,11.70
2019-05-01T10:18:24.347Z,11.80
2019-05-01T10:20:53.187Z,11.90
2019-05-01T10:23:22.001Z,11.90
2019-05-01T10:25:52.347Z,11.90
2019-05-01T10:28:22.759Z,12.10
2019-05-01T10:30:53.357Z,12.30
2019-05-01T10:33:23.714Z,12.30
2019-05-01T10:35:53.387Z,12.50
2019-05-01T10:38:22.293Z,12.70
2019-05-01T10:40:51.167Z,12.70
2019-05-01T10:43:19.916Z,12.80
2019-05-01T10:45:48.678Z,12.90
2019-05-01T10:48:17.557Z,12.90
2019-05-01T10:50:46.381Z,12.90
2019-05-01T10:53:15.222Z,13.20
2019-05-01T10:55:44.042Z,13.20
2019-05-01T10:58:17.862Z,13.30
2019-05-01T11:00:44.990Z,13.60
2019-05-01T11:03:13.957Z,13.60
2019-05-01T11:05:55.356Z,13.50
2019-05-01T11:08:14.820Z,13.50
2019-05-01T11:10:43.902Z,13.70
2019-05-01T11:13:12.675Z,13.50
2019-05-01T11:15:41.573Z,13.50
2019-05-01T11:18:10.408Z,14.00
2019-05-01T11:20:39.230Z,14.30
2019-05-01T11:23:08.077Z,14.40
2019-05-01T11:25:36.968Z,14.30
2019-05-01T11:28:05.966Z,14.40
2019-05-01T11:30:34.753Z,14.80
2019-05-01T11:33:05.077Z,15.10
2019-05-01T11:35:35.445Z,15.40
2019-05-01T11:38:05.875Z,15.70
2019-05-01T11:40:36.344Z,16.10
2019-05-01T11:43:05.102Z,16.10
2019-05-01T11:45:33.921Z,16.30
2019-05-01T11:48:02.875Z,16.20
2019-05-01T11:50:31.621Z,16.80
2019-05-01T11:53:00.494Z,17.50
2019-05-01T11:55:29.426Z,18.00
2019-05-01T11:57:58.270Z,18.00
2019-05-01T12:00:27.164Z,17.80
2019-05-01T12:02:55.969Z,17.70
2019-05-01T12:05:24.731Z,17.70
2019-05-01T12:07:53.660Z,17.50
2019-05-01T12:10:22.492Z,18.10
2019-05-01T12:12:51.327Z,18.60
2019-05-01T12:15:20.608Z,19.30
2019-05-01T12:17:50.516Z,19.30
2019-05-01T12:20:20.224Z,19.30
2019-05-01T12:22:51.384Z,19.70
2019-05-01T12:25:19.486Z,19.80
2019-05-01T12:27:48.428Z,19.70
2019-05-01T12:30:18.071Z,20.30
2019-05-01T12:32:46.857Z,20.80
2019-05-01T12:35:16.049Z,20.60
2019-05-01T12:37:44.965Z,20.80
2019-05-01T12:40:15.971Z,21.30
2019-05-01T12:42:44.941Z,21.20
2019-05-01T12:45:14.616Z,20.20
2019-05-01T12:47:45.039Z,20.20
2019-05-01T12:50:14.232Z,20.50
2019-05-01T12:52:43.960Z,20.60
2019-05-01T12:55:14.287Z,20.60
2019-05-01T12:57:43.217Z,19.80
2019-05-01T13:00:15.018Z,20.30
2019-05-01T13:02:43.821Z,20.60
2019-05-01T13:05:12.663Z,21.20
2019-05-01T13:07:41.745Z,20.60
2019-05-01T13:10:11.152Z,20.60
2019-05-01T13:12:39.890Z,20.40
2019-05-01T13:15:09.842Z,20.30
2019-05-01T13:17:38.687Z,20.50
2019-05-01T13:20:09.006Z,20.60
2019-05-01T13:22:37.839Z,20.30
2019-05-01T13:25:07.860Z,20.00
2019-05-01T13:27:38.177Z,20.30
2019-05-01T13:30:11.346Z,20.20
2019-05-01T13:32:41.681Z,20.90
2019-05-01T13:35:10.776Z,20.30
2019-05-01T13:37:39.819Z,19.80
2019-05-01T13:40:12.728Z,19.60
2019-05-01T13:42:41.570Z,19.20
2019-05-01T13:45:10.845Z,19.50
2019-05-01T13:47:39.672Z,19.70
2019-05-01T13:50:09.326Z,19.30
2019-05-01T13:52:38.724Z,19.30
2019-05-01T13:55:08.198Z,19.20
2019-05-01T13:57:37.227Z,19.20
2019-05-01T14:00:08.056Z,19.50
2019-05-01T14:02:36.984Z,19.10
2019-05-01T14:05:06.380Z,18.20
2019-05-01T14:07:35.173Z,17.70
2019-05-01T14:10:04.607Z,17.70
2019-05-01T14:12:33.335Z,17.30
2019-05-01T14:15:02.157Z,17.50
2019-05-01T14:17:30.834Z,17.70
2019-05-01T14:20:01.191Z,17.60
2019-05-01T14:22:31.450Z,17.50
2019-05-01T14:25:01.807Z,17.50
2019-05-01T14:27:30.704Z,17.40
2019-05-01T14:29:59.482Z,17.30
2019-05-01T14:32:28.285Z,17.30
2019-05-01T14:34:57.136Z,17.30
2019-05-01T14:37:29.726Z,17.10
2019-05-01T14:39:56.587Z,17.20
2019-05-01T14:42:25.383Z,17.20
2019-05-01T14:44:54.115Z,17.20
2019-05-01T14:47:22.868Z,17.20
2019-05-01T14:49:51.748Z,17.10
2019-05-01T14:52:20.546Z,17.00
2019-05-01T14:54:49.511Z,17.00
2019-05-01T14:57:18.360Z,17.00
2019-05-01T14:59:47.075Z,16.90
2019-05-01T15:02:15.930Z,16.70
2019-05-01T15:04:44.677Z,16.80
2019-05-01T15:07:13.553Z,16.90
2019-05-01T15:09:42.339Z,16.90
2019-05-01T15:12:11.077Z,16.90
2019-05-01T15:14:40.810Z,16.80
2019-05-01T15:17:11.265Z,16.80
2019-05-01T15:19:41.524Z,16.60
2019-05-01T15:22:10.390Z,16.60
2019-05-01T15:24:39.140Z,16.70
2019-05-01T15:27:07.913Z,16.70
2019-05-01T15:29:37.742Z,16.70
2019-05-01T15:32:06.614Z,16.60
2019-05-01T15:34:35.370Z,16.70
2019-05-01T15:37:07.303Z,16.70
2019-05-01T15:39:37.527Z,16.70
2019-05-01T15:42:07.908Z,16.60
2019-05-01T15:44:38.282Z,16.60
2019-05-01T15:47:07.189Z,16.60
2019-05-01T15:49:36.174Z,16.50
2019-05-01T15:52:05.217Z,16.40
2019-05-01T15:54:34.100Z,16.60
2019-05-01T15:57:02.842Z,16.70
2019-05-01T15:59:31.658Z,16.60
2019-05-01T16:02:00.414Z,16.70
2019-05-01T16:04:29.726Z,16.60
2019-05-01T16:06:58.572Z,16.50
2019-05-01T16:09:27.466Z,16.50
2019-05-01T16:11:57.776Z,16.40
2019-05-01T16:14:26.616Z,16.40
2019-05-01T16:16:55.448Z,16.30
2019-05-01T16:19:24.457Z,16.30
2019-05-01T16:21:53.377Z,16.20
2019-05-01T16:24:22.244Z,16.20
2019-05-01T16:26:51.061Z,16.20
2019-05-01T16:29:19.848Z,16.30
2019-05-01T16:31:48.746Z,16.30
2019-05-01T16:34:17.511Z,16.20
2019-05-01T16:36:46.468Z,16.20
2019-05-01T16:39:15.296Z,16.10
2019-05-01T16:41:45.991Z,16.20
2019-05-01T16:44:15.007Z,16.10
2019-05-01T16:46:43.885Z,15.90
2019-05-01T16:49:12.833Z,15.80
2019-05-01T16:51:41.973Z,15.80
2019-05-01T16:54:11.028Z,15.90
2019-05-01T16:56:39.883Z,15.80
2019-05-01T16:59:08.778Z,15.80
2019-05-01T17:01:39.105Z,15.80
2019-05-01T17:04:09.417Z,15.80
2019-05-01T17:06:39.806Z,15.80
2019-05-01T17:09:11.676Z,15.80
2019-05-01T17:11:40.941Z,15.60
2019-05-01T17:14:09.938Z,15.40
2019-05-01T17:16:38.957Z,15.30
2019-05-01T17:19:08.919Z,15.30
2019-05-01T17:21:37.787Z,15.30
2019-05-01T17:24:06.756Z,15.20
2019-05-01T17:26:35.573Z,15.20
2019-05-01T17:29:04.713Z,15.20
2019-05-01T17:31:33.769Z,15.10
2019-05-01T17:34:02.679Z,15.00
2019-05-01T17:36:31.821Z,15.00
2019-05-01T17:39:00.836Z,14.90
2019-05-01T17:41:35.602Z,14.90
2019-05-01T17:44:04.680Z,14.80
2019-05-01T17:46:33.846Z,14.80
2019-05-01T17:49:04.077Z,14.60
2019-05-01T17:51:33.343Z,14.50
2019-05-01T17:54:02.125Z,14.50
2019-05-01T17:56:31.085Z,14.40
2019-05-01T17:58:59.973Z,14.40
2019-05-01T18:01:33.181Z,14.30
2019-05-01T18:04:02.399Z,14.30
2019-05-01T18:06:32.783Z,14.20
2019-05-01T18:09:03.278Z,14.10
2019-05-01T18:11:32.556Z,14.10
2019-05-01T18:14:01.349Z,14.00
2019-05-01T18:16:30.355Z,13.90
2019-05-01T18:18:59.160Z,13.80
2019-05-01T18:21:28.262Z,13.70
2019-05-01T18:23:58.704Z,13.60
2019-05-01T18:26:31.710Z,13.60
2019-05-01T18:29:05.855Z,13.50
2019-05-01T18:31:33.133Z,13.40
2019-05-01T18:34:04.170Z,13.30
2019-05-01T18:36:34.405Z,13.20
2019-05-01T18:39:15.863Z,13.10
2019-05-01T18:41:36.979Z,13.10
2019-05-01T18:44:10.192Z,13.10
2019-05-01T18:46:36.507Z,13.00
2019-05-01T18:49:05.545Z,12.90
2019-05-01T18:51:36.263Z,12.80
2019-05-01T18:54:05.472Z,12.80
2019-05-01T18:56:38.101Z,12.70
2019-05-01T18:59:05.575Z,12.60
2019-05-01T19:01:34.559Z,12.50
2019-05-01T19:04:03.777Z,12.40
2019-05-01T19:06:41.149Z,12.30
2019-05-01T19:09:14.673Z,12.20
2019-05-01T19:11:36.447Z,12.10
2019-05-01T19:14:05.480Z,12.10
2019-05-01T19:16:34.290Z,12.10
2019-05-01T19:19:04.104Z,11.90
2019-05-01T19:21:33.423Z,11.90
2019-05-01T19:24:02.513Z,11.80
2019-05-01T19:26:33.014Z,11.70
2019-05-01T19:29:01.909Z,11.60
2019-05-01T19:31:30.752Z,11.70
2019-05-01T19:33:59.793Z,11.50
2019-05-01T19:36:40.294Z,11.50
2019-05-01T19:39:11.784Z,11.40
2019-05-01T19:41:43.615Z,11.40
2019-05-01T19:44:13.967Z,11.40
2019-05-01T19:46:42.084Z,11.20
2019-05-01T19:49:11.553Z,11.20
2019-05-01T19:51:40.430Z,11.10
2019-05-01T19:54:09.557Z,11.00
2019-05-01T19:56:38.645Z,10.90
2019-05-01T19:59:07.674Z,10.80
2019-05-01T20:01:38.423Z,10.70
2019-05-01T20:04:08.480Z,10.60
2019-05-01T20:06:39.951Z,10.50
2019-05-01T20:09:09.613Z,10.40
2019-05-01T20:11:38.662Z,10.40
2019-05-01T20:14:07.658Z,10.30
2019-05-01T20:16:36.669Z,10.30
2019-05-01T20:19:07.611Z,10.20
2019-05-01T20:21:36.600Z,10.10
2019-05-01T20:24:09.253Z,10.00
2019-05-01T20:26:36.594Z,9.90
2019-05-01T20:29:07.791Z,9.90
2019-05-01T20:31:36.015Z,9.80
2019-05-01T20:34:11.973Z,9.80
2019-05-01T20:36:53.462Z,9.70
2019-05-01T20:39:19.021Z,9.60
2019-05-01T20:41:48.667Z,9.50
2019-05-01T20:44:23.390Z,9.50
2019-05-01T20:46:58.584Z,9.40
2019-05-01T20:49:28.809Z,9.30
2019-05-01T20:51:57.583Z,9.20
2019-05-01T20:54:26.386Z,9.20
2019-05-01T20:56:56.662Z,9.10
2019-05-01T20:59:25.567Z,9.00
2019-05-01T21:01:54.556Z,9.10
2019-05-01T21:04:26.480Z,9.10
2019-05-01T21:06:56.884Z,9.10
2019-05-01T21:09:29.299Z,9.10
2019-05-01T21:12:05.541Z,9.10
2019-05-01T21:14:31.322Z,9.00
2019-05-01T21:17:13.694Z,8.90
2019-05-01T21:19:45.173Z,8.90
2019-05-01T21:22:14.361Z,8.90
2019-05-01T21:24:53.268Z,8.80
2019-05-01T21:27:24.258Z,8.80
2019-05-01T21:32:46.710Z,9.10
2019-05-01T21:35:15.562Z,9.20
2019-05-01T21:37:44.425Z,9.20
2019-05-01T21:40:14.110Z,9.20
2019-05-01T21:42:42.938Z,9.10
2019-05-01T21:45:12.721Z,9.10
2019-05-01T21:47:42.632Z,9.10
2019-05-01T21:50:13.287Z,9.00
2019-05-01T21:52:43.739Z,9.00
2019-05-01T21:55:12.852Z,9.10
2019-05-01T21:57:42.569Z,9.30
2019-05-01T22:00:11.561Z,9.30
2019-05-01T22:02:41.600Z,9.30
2019-05-01T22:05:11.549Z,9.40
2019-05-01T22:07:41.465Z,9.40
2019-05-01T22:10:11.072Z,9.40
2019-05-01T22:12:44.017Z,9.30
2019-05-01T22:15:12.455Z,9.30
2019-05-01T22:17:42.097Z,9.20
2019-05-01T22:20:12.751Z,9.20
2019-05-01T22:22:44.061Z,9.20
2019-05-01T22:25:15.047Z,9.10
2019-05-01T22:27:45.227Z,9.00
2019-05-01T22:30:16.103Z,9.00
2019-05-01T22:32:46.425Z,8.90
2019-05-01T22:35:17.150Z,8.80
2019-05-01T22:37:46.909Z,8.80
2019-05-01T22:40:17.668Z,8.80
2019-05-01T22:42:46.508Z,8.70
2019-05-01T22:45:18.091Z,8.70
2019-05-01T22:47:50.787Z,8.60
2019-05-01T22:50:17.718Z,8.60
2019-05-01T22:52:46.472Z,8.60
2019-05-01T22:55:20.320Z,8.60
2019-05-01T22:57:47.563Z,8.50
2019-05-01T23:00:20.664Z,8.40
2019-05-01T23:02:49.539Z,8.30
2019-05-01T23:05:18.309Z,8.30
2019-05-01T23:07:47.110Z,8.20
2019-05-01T23:10:16.231Z,8.20
2019-05-01T23:12:44.973Z,8.10
2019-05-01T23:15:15.401Z,8.10
2019-05-01T23:17:46.056Z,8.00
2019-05-01T23:20:16.676Z,8.00
2019-05-01T23:22:45.469Z,7.90
2019-05-01T23:25:14.888Z,7.90
2019-05-01T23:27:43.713Z,7.80
2019-05-01T23:30:15.063Z,7.70
2019-05-01T23:32:44.068Z,7.70
2019-05-01T23:35:13.212Z,7.70
2019-05-01T23:37:41.957Z,7.60
2019-05-01T23:40:15.531Z,7.60
2019-05-01T23:42:51.999Z,7.50
2019-05-01T23:45:15.008Z,7.50
2019-05-01T23:47:43.947Z,7.50
2019-05-01T23:50:13.075Z,7.50
2019-05-01T23:52:41.934Z,7.40
2019-05-01T23:55:10.895Z,7.40
2019-05-01T23:57:39.667Z,7.30
